Kemps Landing, Louisiana
Current Conditions -  °F | °C
As of 8:35 PM on Friday 28 Nov 2014 (Local Time) from KHEZ Reporting Station
Clear Clear  
Wind Chill: 50°   Ceiling: Unl
Heat Index: 50°   Visibility: 10mi
Dew Point: 32°   Wind: 8mph
Humidity: 50%   Direction: 160°SSE
Pressure: 30.22"   Gusts: NA
Location:  31.3468°N, 91.6624°W
Report Text: KHEZ 290235Z AUTO 16007KT 10SM CLR 10/00 A3022 RMK AO1
Loading
Personal Weather Stations






























Interactive Weather Map New forecast layout! Learn more

10-Day Weather Forecast

Advertisements
Track Severe Weather on mobile